Rushville, IL (62681)

6:33 AM CDT on July 29, 2016 (GMT -0500)
APRSWXNET | | Change Station

Elev 649 ft 40.14 °N, 90.42 °W | Updated 33 minutes ago

Mostly Cloudy
Mostly Cloudy
65 °F
Feels Like 65 °F
N
0
Wind Variable Wind from SW
Gusts 0.0 mph

Today
High -- | Low -- °F
--% Chance of Precip.
Yesterday
High -- | Low -- °F
Precip. -- in
Pressure 29.94 in
Visibility 3.0 miles
Clouds Mostly Cloudy 300 ft
Dew Point 65 °F
Humidity 99%
Rainfall in
Snow Depth Not available.
5:58 AM 8:18 PM
Waning Crescent, 23% visible
METAR KMQB 291115Z AUTO 00000KT 3SM BR BKN003 18/18 A2994 RMK AO2 T01750175
Pressure 29.94 in
Visibility 3.0 miles
Clouds Mostly Cloudy 300 ft
Dew Point 65 °F
Humidity 99%
Rainfall in
Snow Depth Not available.
5:58 AM 8:18 PM
Waning Crescent, 23% visible
METAR KMQB 291115Z AUTO 00000KT 3SM BR BKN003 18/18 A2994 RMK AO2 T01750175

10-Day Weather Forecast

Almanac

Astronomy

Jul. 29, 2016 Rise Set
Actual Time
Civil Twilight
Nautical Twilight
Astronomical Twilight
Moon
Length of Visible Light
Length of Day
Tomorrow will be .
, % of the Moon is Illuminated

Today's Extremes

State Highs State Lows

Community

WunderPhotos

Upload Photos

1,928,315 photos uploaded!

WunderBlog® & News

Nearby

Air Quality

  Air Quality AQ Index Pollutant
Not available.

Snow Depth

Station Depth Elevation

Earthquake Activity

City Distance Mag. Time & Date
Minimum magnitude displayed is 2.5.

Coastal Water Temperatures

Place Temperature

Stations

Nearby Weather Stations

Station Location Temp. Windchill Dew Point Humidity Wind Precip. Elev Updated Type
                   

Watches & Warnings

There are currently no watches in effect.